Time;durP1;ratioP1;P1;durP2;ratioP2;P2;SDS_P1;SDS_P2;PMS_P1;PMS_P2;Temp;Humidity;BMP_temperature;BMP_pressure;BME280_temperature;BME280_humidity;BME280_pressure;Samples;Min_cycle;Max_cycle;Signal;HPM_P1;HPM_P2
2024/01/13 00:01:02;;;;;;;7.72;3.25;;;0.40;99.90;;;;;;5040848;28;20033;-58
2024/01/13 00:03:28;;;;;;;5.93;3.80;;;0.50;99.90;;;;;;5044435;28;20040;-60
2024/01/13 00:05:53;;;;;;;6.38;3.83;;;0.50;99.90;;;;;;5044585;28;20041;-57
2024/01/13 00:08:19;;;;;;;6.72;3.83;;;0.60;99.90;;;;;;5041336;28;20041;-61
2024/01/13 00:10:44;;;;;;;7.43;3.97;;;0.50;99.90;;;;;;5044262;28;20464;-60
2024/01/13 00:13:10;;;;;;;5.82;3.33;;;0.50;99.90;;;;;;5043899;28;20045;-62
2024/01/13 00:15:36;;;;;;;8.07;3.53;;;0.50;99.90;;;;;;5053314;28;20602;-63
2024/01/13 00:18:01;;;;;;;6.80;3.55;;;0.50;99.90;;;;;;5035895;28;20034;-62
2024/01/13 00:20:27;;;;;;;5.82;3.88;;;0.40;99.90;;;;;;5030017;28;20041;-61
2024/01/13 00:22:52;;;;;;;6.07;3.20;;;0.40;99.90;;;;;;5030005;28;20065;-61
2024/01/13 00:25:18;;;;;;;6.57;3.63;;;0.50;99.90;;;;;;5027704;28;20044;-62
2024/01/13 00:27:44;;;;;;;8.70;4.20;;;0.50;99.90;;;;;;5028857;28;20045;-57
2024/01/13 00:30:10;;;;;;;8.98;4.35;;;0.40;99.90;;;;;;5028928;28;20038;-60
2024/01/13 00:32:36;;;;;;;9.02;4.40;;;0.50;99.90;;;;;;5028279;28;20045;-60
2024/01/13 00:35:02;;;;;;;10.13;4.50;;;0.50;99.90;;;;;;5032302;28;20026;-59
2024/01/13 00:37:27;;;;;;;8.68;4.20;;;0.40;99.90;;;;;;5028099;28;20046;-62
2024/01/13 00:39:53;;;;;;;6.72;3.55;;;0.30;99.90;;;;;;5032338;28;20037;-61
2024/01/13 00:42:18;;;;;;;6.63;3.22;;;0.30;99.90;;;;;;5035677;28;20029;-62
2024/01/13 00:44:44;;;;;;;7.05;3.65;;;0.30;99.90;;;;;;5027763;28;20029;-60
2024/01/13 00:47:09;;;;;;;7.05;3.83;;;0.30;99.90;;;;;;5028757;28;20040;-58
2024/01/13 00:49:35;;;;;;;7.63;3.70;;;0.30;99.90;;;;;;5030544;28;20381;-62
2024/01/13 00:52:00;;;;;;;8.18;3.92;;;0.30;99.90;;;;;;5029187;28;20037;-60
2024/01/13 00:54:26;;;;;;;5.85;2.53;;;0.30;99.90;;;;;;5029163;28;20046;-61
2024/01/13 00:56:53;;;;;;;4.03;2.38;;;0.30;99.90;;;;;;5028601;28;20041;-61
2024/01/13 00:59:19;;;;;;;7.10;4.18;;;0.30;99.90;;;;;;5027480;28;20041;-62
2024/01/13 01:01:44;;;;;;;8.43;3.00;;;0.30;99.90;;;;;;5032200;28;20412;-59
2024/01/13 01:04:10;;;;;;;5.22;3.10;;;0.30;99.90;;;;;;5027986;28;20153;-63
2024/01/13 01:06:36;;;;;;;6.40;3.47;;;0.30;99.90;;;;;;5025247;28;20567;-62
2024/01/13 01:09:01;;;;;;;9.63;3.65;;;0.30;99.90;;;;;;5028871;28;20247;-61
2024/01/13 01:11:27;;;;;;;8.30;3.90;;;0.30;99.90;;;;;;5027048;28;20089;-63
2024/01/13 01:13:53;;;;;;;8.75;3.53;;;0.30;99.90;;;;;;5032730;28;20037;-61
2024/01/13 01:16:18;;;;;;;6.20;3.63;;;0.30;99.90;;;;;;5033343;28;20055;-59
2024/01/13 01:18:44;;;;;;;6.95;3.50;;;0.30;99.90;;;;;;5027416;28;20153;-58
2024/01/13 01:21:10;;;;;;;8.23;3.80;;;0.30;99.90;;;;;;5027358;28;20090;-60
2024/01/13 01:23:36;;;;;;;9.02;4.53;;;0.30;99.90;;;;;;5029038;28;20501;-62
2024/01/13 01:26:01;;;;;;;9.07;4.07;;;0.30;99.90;;;;;;5025452;28;20048;-59
2024/01/13 01:28:27;;;;;;;8.52;4.40;;;0.40;99.90;;;;;;5025818;28;20040;-62
2024/01/13 01:30:52;;;;;;;12.77;5.50;;;0.40;99.90;;;;;;5037685;28;20041;-61
2024/01/13 01:33:18;;;;;;;9.45;4.78;;;0.40;99.90;;;;;;5032942;28;20508;-61
2024/01/13 01:35:44;;;;;;;10.05;5.15;;;0.40;99.90;;;;;;5031938;28;20072;-58
2024/01/13 01:38:09;;;;;;;11.27;5.68;;;0.40;99.90;;;;;;5026970;28;20120;-62
2024/01/13 01:40:35;;;;;;;12.05;5.90;;;0.30;99.90;;;;;;5031506;28;20069;-60
2024/01/13 01:43:01;;;;;;;12.35;5.82;;;0.30;99.90;;;;;;5033074;28;20381;-58
2024/01/13 01:45:26;;;;;;;12.13;6.22;;;0.30;99.90;;;;;;5027450;28;20045;-57
2024/01/13 01:47:53;;;;;;;10.55;5.28;;;0.30;99.90;;;;;;5027395;28;20040;-61
2024/01/13 01:50:19;;;;;;;11.43;5.50;;;0.40;99.90;;;;;;5029739;28;20037;-58
2024/01/13 01:52:45;;;;;;;12.60;5.68;;;0.40;99.90;;;;;;5032826;28;20124;-61
2024/01/13 01:55:10;;;;;;;11.95;5.97;;;0.30;99.90;;;;;;5026534;28;20029;-59
2024/01/13 01:57:38;;;;;;;11.50;4.90;;;0.30;99.90;;;;;;5034078;28;20060;-62
2024/01/13 02:00:06;;;;;;;13.00;6.07;;;0.30;99.90;;;;;;5036500;28;20095;-62
2024/01/13 02:02:31;;;;;;;11.88;5.65;;;0.30;99.90;;;;;;5005289;28;20459;-58
2024/01/13 02:04:58;;;;;;;8.38;4.00;;;0.30;99.90;;;;;;5020582;28;20033;-61
2024/01/13 02:07:24;;;;;;;9.68;4.95;;;0.30;99.90;;;;;;5008075;28;20050;-57
2024/01/13 02:09:50;;;;;;;11.80;5.10;;;0.20;99.90;;;;;;5009256;28;20037;-60
2024/01/13 02:12:16;;;;;;;8.40;4.35;;;0.30;99.90;;;;;;5007579;28;20048;-61
2024/01/13 02:14:41;;;;;;;12.70;5.20;;;0.20;99.90;;;;;;5006237;28;20037;-57
2024/01/13 02:17:08;;;;;;;12.35;5.40;;;0.20;99.90;;;;;;5007480;28;20045;-61
2024/01/13 02:19:33;;;;;;;9.60;4.75;;;0.10;99.90;;;;;;5012935;28;20121;-60
2024/01/13 02:22:00;;;;;;;12.57;5.28;;;0.10;99.90;;;;;;5010890;28;20116;-58
2024/01/13 02:24:25;;;;;;;14.45;5.88;;;0.10;99.90;;;;;;5007178;28;20038;-60
2024/01/13 02:26:51;;;;;;;12.05;5.03;;;0.20;99.90;;;;;;5007275;28;20052;-61
2024/01/13 02:29:16;;;;;;;10.55;4.97;;;0.10;99.90;;;;;;5010916;28;20052;-55
2024/01/13 02:31:42;;;;;;;15.00;6.13;;;0.10;99.90;;;;;;5023900;28;20460;-58
2024/01/13 02:34:07;;;;;;;13.85;6.00;;;0.10;99.90;;;;;;5026386;28;20033;-58
2024/01/13 02:36:33;;;;;;;9.75;4.40;;;0.10;99.90;;;;;;5026165;28;20100;-60
2024/01/13 02:38:58;;;;;;;9.52;3.67;;;0.10;99.90;;;;;;5031044;28;20120;-62
2024/01/13 02:41:24;;;;;;;7.68;3.00;;;0.10;99.90;;;;;;5027432;28;20136;-61
2024/01/13 02:43:50;;;;;;;6.47;2.88;;;0.20;99.90;;;;;;5024855;28;20041;-55
2024/01/13 02:46:16;;;;;;;7.82;2.67;;;0.20;99.90;;;;;;5025788;28;20046;-62
2024/01/13 02:48:45;;;;;;;5.75;2.50;;;0.10;99.90;;;;;;5030457;28;20129;-58
2024/01/13 02:51:14;;;;;;;7.88;2.50;;;0.10;99.90;;;;;;5026083;28;20052;-58
2024/01/13 02:53:39;;;;;;;6.50;3.15;;;0.10;99.90;;;;;;5030561;28;20049;-60
2024/01/13 02:56:05;;;;;;;4.20;2.22;;;0.10;99.90;;;;;;5026582;28;20048;-61
2024/01/13 02:58:31;;;;;;;7.30;3.05;;;0.10;99.90;;;;;;5024477;28;20043;-61
2024/01/13 03:00:57;;;;;;;7.10;3.47;;;0.10;99.90;;;;;;5017561;28;20061;-59
2024/01/13 03:03:22;;;;;;;7.55;2.92;;;0.00;99.90;;;;;;5004814;28;20045;-59
2024/01/13 03:05:48;;;;;;;7.75;3.17;;;0.00;99.90;;;;;;5009700;28;20057;-58
2024/01/13 03:08:13;;;;;;;8.13;3.42;;;0.00;99.90;;;;;;5010946;28;20551;-58
2024/01/13 03:10:40;;;;;;;6.15;2.45;;;0.00;99.90;;;;;;5009009;28;20061;-58
2024/01/13 03:13:06;;;;;;;5.80;2.85;;;0.00;99.90;;;;;;5006420;28;20048;-58
2024/01/13 03:15:31;;;;;;;6.38;2.67;;;-0.10;99.90;;;;;;5007810;28;20668;-63
2024/01/13 03:17:57;;;;;;;5.90;3.17;;;-0.10;99.90;;;;;;5005616;28;20112;-58
2024/01/13 03:20:23;;;;;;;5.35;2.65;;;-0.10;99.90;;;;;;5005054;28;20037;-61
2024/01/13 03:22:48;;;;;;;4.90;2.42;;;-0.10;99.90;;;;;;5007344;28;20096;-61
2024/01/13 03:25:14;;;;;;;10.00;2.88;;;-0.10;99.90;;;;;;5006835;28;20068;-60
2024/01/13 03:27:39;;;;;;;5.28;2.63;;;-0.10;99.90;;;;;;5007660;28;20435;-61
2024/01/13 03:30:06;;;;;;;8.15;2.67;;;-0.10;99.90;;;;;;5005690;28;20040;-59
2024/01/13 03:32:31;;;;;;;8.27;3.20;;;-0.10;99.90;;;;;;5024889;28;20505;-56
2024/01/13 03:34:57;;;;;;;5.80;2.80;;;-0.10;99.90;;;;;;5025524;28;20065;-61
2024/01/13 03:37:22;;;;;;;6.65;2.88;;;-0.10;99.90;;;;;;5026418;28;20041;-53
2024/01/13 03:39:48;;;;;;;7.93;3.38;;;-0.10;99.90;;;;;;5025595;28;20045;-59
2024/01/13 03:42:13;;;;;;;9.20;4.15;;;-0.10;99.90;;;;;;5026784;28;20045;-61
2024/01/13 03:44:39;;;;;;;8.82;4.15;;;-0.10;99.90;;;;;;5023961;28;20082;-61
2024/01/13 03:47:04;;;;;;;9.02;4.90;;;0.00;99.90;;;;;;5025812;28;20045;-59
2024/01/13 03:49:30;;;;;;;11.55;5.25;;;-0.10;99.90;;;;;;5025674;28;20045;-57
2024/01/13 03:51:56;;;;;;;10.93;5.75;;;0.00;99.90;;;;;;5025721;28;20045;-61
2024/01/13 03:54:21;;;;;;;13.52;6.93;;;0.00;99.90;;;;;;5029531;28;20041;-62
2024/01/13 03:56:47;;;;;;;13.55;6.20;;;0.00;99.90;;;;;;5029985;28;20638;-60
2024/01/13 03:59:14;;;;;;;14.05;6.53;;;-0.10;99.90;;;;;;5029429;28;20103;-60
2024/01/13 04:01:40;;;;;;;13.18;6.80;;;-0.10;99.90;;;;;;5016254;28;20157;-60
2024/01/13 04:04:06;;;;;;;12.20;5.90;;;-0.10;99.90;;;;;;5013449;28;20117;-60
2024/01/13 04:06:31;;;;;;;11.98;5.78;;;-0.10;99.90;;;;;;5010133;28;20038;-60
2024/01/13 04:08:57;;;;;;;11.82;5.43;;;-0.10;99.90;;;;;;5012017;28;20394;-59
2024/01/13 04:11:22;;;;;;;10.18;4.88;;;-0.20;99.90;;;;;;5016548;28;20465;-58
2024/01/13 04:13:48;;;;;;;10.25;5.63;;;-0.10;99.90;;;;;;5011726;28;20116;-57
2024/01/13 04:16:13;;;;;;;12.07;4.80;;;-0.20;99.90;;;;;;5011939;28;20079;-58
2024/01/13 04:18:39;;;;;;;10.68;5.75;;;-0.10;99.90;;;;;;5012525;28;20034;-60
2024/01/13 04:21:05;;;;;;;12.85;6.47;;;-0.10;99.90;;;;;;5008564;28;20033;-56
2024/01/13 04:23:30;;;;;;;12.00;5.88;;;-0.10;99.90;;;;;;5011469;28;20272;-58
2024/01/13 04:25:56;;;;;;;13.55;7.05;;;-0.10;99.90;;;;;;5008586;28;20050;-60
2024/01/13 04:28:21;;;;;;;14.95;7.65;;;-0.10;99.90;;;;;;5011406;28;20037;-59
2024/01/13 04:30:47;;;;;;;19.67;9.10;;;0.00;99.90;;;;;;5012474;28;20042;-60
2024/01/13 04:33:12;;;;;;;17.77;9.00;;;0.00;99.90;;;;;;5028792;28;20572;-57
2024/01/13 04:35:38;;;;;;;21.92;10.07;;;-0.10;99.90;;;;;;5032413;28;20041;-59
2024/01/13 04:38:03;;;;;;;22.65;11.75;;;-0.10;99.90;;;;;;5029210;28;20176;-60
2024/01/13 04:40:33;;;;;;;22.30;12.35;;;-0.10;99.90;;;;;;5027749;28;20416;-61
2024/01/13 04:42:59;;;;;;;24.15;12.52;;;-0.10;99.90;;;;;;5028730;28;20052;-57
2024/01/13 04:45:24;;;;;;;29.98;12.65;;;-0.10;99.90;;;;;;5027855;28;20037;-57
2024/01/13 04:47:49;;;;;;;26.95;12.77;;;-0.10;99.90;;;;;;5027722;28;20591;-60
2024/01/13 04:50:15;;;;;;;24.02;11.30;;;-0.10;99.90;;;;;;5027536;28;20037;-60
2024/01/13 04:52:41;;;;;;;26.00;12.18;;;-0.10;99.90;;;;;;5028579;28;20034;-57
2024/01/13 04:55:06;;;;;;;29.10;13.13;;;-0.10;99.90;;;;;;5028240;28;20033;-61
2024/01/13 04:57:32;;;;;;;28.00;13.00;;;0.00;99.90;;;;;;5024988;28;20401;-57
2024/01/13 04:59:57;;;;;;;26.08;11.82;;;-0.10;99.90;;;;;;5029776;28;20034;-58
2024/01/13 05:02:23;;;;;;;25.83;12.52;;;0.00;99.90;;;;;;5027951;28;20048;-58
2024/01/13 05:04:48;;;;;;;22.27;11.70;;;0.00;99.90;;;;;;5027493;28;20041;-60
2024/01/13 05:07:14;;;;;;;25.00;13.27;;;0.00;99.90;;;;;;5028294;28;20033;-59
2024/01/13 05:09:40;;;;;;;28.95;15.68;;;0.00;99.90;;;;;;5028098;28;20044;-59
2024/01/13 05:12:05;;;;;;;27.55;14.35;;;0.00;99.90;;;;;;5027853;28;20068;-60
2024/01/13 05:14:31;;;;;;;27.63;15.10;;;-0.10;99.90;;;;;;5030426;28;20033;-60
2024/01/13 05:16:57;;;;;;;28.17;15.88;;;-0.10;99.90;;;;;;5026371;28;20053;-61
2024/01/13 05:19:22;;;;;;;31.85;16.65;;;-0.10;99.90;;;;;;5028213;28;20037;-61
2024/01/13 05:21:48;;;;;;;32.53;17.30;;;-0.10;99.90;;;;;;5027209;28;20045;-58
2024/01/13 05:24:14;;;;;;;26.42;15.25;;;-0.10;99.90;;;;;;5027667;28;20025;-56
2024/01/13 05:26:40;;;;;;;29.58;16.98;;;-0.10;99.90;;;;;;5027323;28;20042;-57
2024/01/13 05:29:05;;;;;;;35.03;18.30;;;-0.10;99.90;;;;;;5031547;28;20048;-60
2024/01/13 05:31:31;;;;;;;29.98;16.10;;;-0.20;99.90;;;;;;5015121;28;20034;-60
2024/01/13 05:33:56;;;;;;;29.65;16.02;;;-0.20;99.90;;;;;;5009329;28;20672;-60
2024/01/13 05:36:22;;;;;;;30.67;16.50;;;-0.10;99.90;;;;;;5007548;28;20623;-62
2024/01/13 05:38:48;;;;;;;25.73;15.07;;;-0.10;99.90;;;;;;5006896;28;20076;-61
2024/01/13 05:41:13;;;;;;;24.90;15.15;;;-0.10;99.90;;;;;;5007480;28;20057;-61
2024/01/13 05:43:39;;;;;;;27.20;15.75;;;-0.10;99.90;;;;;;5010957;28;20046;-60
2024/01/13 05:46:05;;;;;;;24.83;14.65;;;-0.10;99.90;;;;;;5005126;28;20046;-61
2024/01/13 05:48:30;;;;;;;23.70;13.55;;;-0.10;99.90;;;;;;5010253;28;20509;-61
2024/01/13 05:50:58;;;;;;;25.00;14.00;;;-0.10;99.90;;;;;;5008631;28;20061;-60
2024/01/13 05:53:23;;;;;;;24.10;13.95;;;0.00;99.90;;;;;;5008944;28;20075;-60
2024/01/13 05:55:49;;;;;;;20.85;11.73;;;-0.10;99.90;;;;;;5006982;28;20074;-58
2024/01/13 05:58:15;;;;;;;20.67;12.55;;;-0.10;99.90;;;;;;5023824;28;20042;-58
2024/01/13 06:00:40;;;;;;;19.45;11.43;;;-0.10;99.90;;;;;;5010034;28;20608;-60
2024/01/13 06:03:06;;;;;;;19.65;11.57;;;-0.10;99.90;;;;;;5021452;28;20033;-61
2024/01/13 06:05:31;;;;;;;20.13;10.90;;;-0.10;99.90;;;;;;5025178;28;20044;-61
2024/01/13 06:07:57;;;;;;;20.52;11.80;;;-0.20;99.90;;;;;;5023697;28;20048;-59
2024/01/13 06:10:23;;;;;;;23.50;12.60;;;-0.20;99.90;;;;;;5023241;28;20037;-58
2024/01/13 06:12:48;;;;;;;18.17;11.35;;;-0.20;99.90;;;;;;5026434;28;20069;-55
2024/01/13 06:15:14;;;;;;;16.50;10.45;;;-0.20;99.90;;;;;;5025920;28;20485;-60
2024/01/13 06:17:40;;;;;;;18.38;10.30;;;-0.20;99.90;;;;;;5027280;28;20051;-57
2024/01/13 06:20:06;;;;;;;15.27;9.52;;;-0.10;99.90;;;;;;5024916;28;20049;-57
2024/01/13 06:22:32;;;;;;;18.67;10.00;;;-0.10;99.90;;;;;;5040266;28;20038;-59
2024/01/13 06:24:58;;;;;;;16.42;9.98;;;-0.10;99.90;;;;;;5042585;28;20682;-60
2024/01/13 06:27:23;;;;;;;17.45;10.75;;;-0.10;99.90;;;;;;5027821;28;20047;-61
2024/01/13 06:29:49;;;;;;;18.65;10.40;;;-0.10;99.90;;;;;;5026572;28;20037;-60
2024/01/13 06:32:14;;;;;;;16.67;9.98;;;-0.10;99.90;;;;;;5010439;28;20042;-58
2024/01/13 06:34:40;;;;;;;17.95;10.63;;;-0.20;99.90;;;;;;5007890;28;20045;-60
2024/01/13 06:37:05;;;;;;;17.95;10.73;;;-0.10;99.90;;;;;;5006629;28;20124;-57
2024/01/13 06:39:31;;;;;;;15.82;9.65;;;-0.10;99.90;;;;;;5007386;28;20038;-60
2024/01/13 06:41:56;;;;;;;14.65;9.00;;;-0.10;99.90;;;;;;5006118;28;20057;-59
2024/01/13 06:44:22;;;;;;;14.75;8.68;;;-0.10;99.90;;;;;;5008203;28;20066;-54
2024/01/13 06:46:47;;;;;;;12.73;8.20;;;-0.10;99.90;;;;;;5007260;28;20049;-60
2024/01/13 06:49:13;;;;;;;19.10;9.40;;;-0.10;99.90;;;;;;5007617;28;20064;-60
2024/01/13 06:51:39;;;;;;;15.93;9.85;;;-0.10;99.90;;;;;;5008833;28;20089;-61
2024/01/13 06:54:05;;;;;;;22.70;10.70;;;-0.10;99.90;;;;;;5005507;28;20080;-62
2024/01/13 06:56:31;;;;;;;22.42;12.02;;;-0.10;99.90;;;;;;5005251;28;20150;-61
2024/01/13 06:58:56;;;;;;;20.83;12.32;;;-0.10;99.90;;;;;;5005551;28;20549;-58
2024/01/13 07:01:22;;;;;;;24.40;13.88;;;-0.20;99.90;;;;;;5016599;28;20041;-60
2024/01/13 07:03:47;;;;;;;23.48;13.70;;;-0.10;99.90;;;;;;5027556;28;20041;-61
2024/01/13 07:06:13;;;;;;;25.00;14.32;;;-0.10;99.90;;;;;;5025864;28;20050;-61
2024/01/13 07:08:41;;;;;;;25.60;13.52;;;-0.20;99.90;;;;;;5025229;28;20618;-60
2024/01/13 07:11:13;;;;;;;23.02;13.02;;;-0.20;99.90;;;;;;5024649;28;20120;-61
2024/01/13 07:13:43;;;;;;;26.45;14.48;;;-0.10;99.90;;;;;;5025637;28;20048;-59
2024/01/13 07:16:11;;;;;;;25.73;13.13;;;-0.20;99.90;;;;;;5026025;28;20564;-62
2024/01/13 07:18:37;;;;;;;23.90;13.07;;;-0.20;99.90;;;;;;5024929;28;20061;-61
2024/01/13 07:21:05;;;;;;;20.27;12.73;;;-0.20;99.90;;;;;;5025257;28;20063;-61
2024/01/13 07:23:31;;;;;;;20.00;10.90;;;-0.20;99.90;;;;;;5027806;28;20072;-62
2024/01/13 07:25:56;;;;;;;20.35;11.15;;;-0.20;99.90;;;;;;5026274;28;20521;-62
2024/01/13 07:28:22;;;;;;;21.80;12.02;;;-0.20;99.90;;;;;;5029156;28;20037;-61
2024/01/13 07:30:49;;;;;;;16.73;9.60;;;-0.10;99.90;;;;;;5025821;28;20048;-58
2024/01/13 07:33:14;;;;;;;26.23;11.00;;;-0.10;99.90;;;;;;5013668;28;20513;-59
2024/01/13 07:35:41;;;;;;;15.93;9.88;;;-0.10;99.90;;;;;;5015909;28;20072;-61
2024/01/13 07:38:06;;;;;;;18.60;10.20;;;-0.10;99.90;;;;;;5013975;28;20053;-62
2024/01/13 07:40:32;;;;;;;15.50;8.35;;;-0.10;99.90;;;;;;5016035;28;20041;-61
2024/01/13 07:42:58;;;;;;;17.05;8.27;;;-0.10;99.90;;;;;;5016558;28;20068;-60
2024/01/13 07:45:24;;;;;;;12.93;7.72;;;-0.10;99.90;;;;;;5013420;28;20129;-58
2024/01/13 07:47:49;;;;;;;11.45;7.22;;;0.00;99.90;;;;;;5008815;28;20053;-62
2024/01/13 07:50:16;;;;;;;15.85;7.60;;;-0.10;99.90;;;;;;5014217;28;20042;-60
2024/01/13 07:52:42;;;;;;;13.90;7.50;;;0.00;99.90;;;;;;5011967;28;20034;-61
2024/01/13 07:55:08;;;;;;;11.70;7.43;;;0.00;99.90;;;;;;5013330;28;20042;-61
2024/01/13 07:57:35;;;;;;;12.52;6.95;;;0.00;99.90;;;;;;5010916;28;20045;-60
2024/01/13 08:00:01;;;;;;;15.45;7.45;;;0.10;99.90;;;;;;5008243;28;20042;-61
2024/01/13 08:02:26;;;;;;;16.48;7.82;;;0.00;99.90;;;;;;5028416;28;20452;-59
2024/01/13 08:04:52;;;;;;;13.82;7.55;;;0.10;99.90;;;;;;5030207;28;20034;-60
2024/01/13 08:07:19;;;;;;;11.23;6.38;;;0.10;99.90;;;;;;5030243;28;20056;-57
2024/01/13 08:09:47;;;;;;;12.63;6.35;;;0.10;99.90;;;;;;5030108;28;20053;-59
2024/01/13 08:12:13;;;;;;;11.75;6.18;;;0.20;99.90;;;;;;5032090;28;20063;-63
2024/01/13 08:14:39;;;;;;;9.88;5.28;;;0.20;99.90;;;;;;5028886;28;20041;-61
2024/01/13 08:17:05;;;;;;;11.82;6.10;;;0.20;99.90;;;;;;5029777;28;20866;-58
2024/01/13 08:19:30;;;;;;;11.23;5.82;;;0.20;99.90;;;;;;5028939;28;20489;-59
2024/01/13 08:21:56;;;;;;;8.82;4.47;;;0.20;99.90;;;;;;5029789;28;20033;-63
2024/01/13 08:24:22;;;;;;;9.27;5.07;;;0.30;99.90;;;;;;5028402;28;20060;-60
2024/01/13 08:26:47;;;;;;;7.55;4.25;;;0.30;99.90;;;;;;5029000;28;20065;-62
2024/01/13 08:29:13;;;;;;;6.47;3.95;;;0.30;99.90;;;;;;5029998;28;20524;-60
2024/01/13 08:31:38;;;;;;;8.85;5.07;;;0.30;99.90;;;;;;5022325;28;20050;-61
2024/01/13 08:34:04;;;;;;;9.25;3.80;;;0.30;99.90;;;;;;5009812;28;20033;-62
2024/01/13 08:36:29;;;;;;;6.85;4.43;;;0.30;99.90;;;;;;5010430;28;20038;-56
2024/01/13 08:38:55;;;;;;;6.53;4.07;;;0.30;99.90;;;;;;5009401;28;20204;-62
2024/01/13 08:41:20;;;;;;;7.75;4.65;;;0.40;99.90;;;;;;5007137;28;20042;-59
2024/01/13 08:43:46;;;;;;;7.40;4.68;;;0.40;99.90;;;;;;5010181;28;20030;-54
2024/01/13 08:46:13;;;;;;;7.25;4.40;;;0.40;99.90;;;;;;5012451;28;20448;-59
2024/01/13 08:48:39;;;;;;;7.72;4.78;;;0.40;99.90;;;;;;5009127;28;20096;-60
2024/01/13 08:51:05;;;;;;;10.60;5.78;;;0.50;99.90;;;;;;5011508;28;20588;-54
2024/01/13 08:53:32;;;;;;;8.07;5.15;;;0.50;99.90;;;;;;5009196;28;20033;-61
2024/01/13 08:55:58;;;;;;;9.05;5.60;;;0.50;99.90;;;;;;5009104;28;20111;-60
2024/01/13 08:58:23;;;;;;;9.63;5.72;;;0.50;99.90;;;;;;5010905;28;20041;-61
2024/01/13 09:00:49;;;;;;;8.85;5.70;;;0.50;99.90;;;;;;5013577;28;20103;-61
2024/01/13 09:03:15;;;;;;;8.23;5.93;;;0.60;99.90;;;;;;5026585;28;20412;-55
2024/01/13 09:05:40;;;;;;;9.77;6.38;;;0.60;99.90;;;;;;5034617;28;20033;-61
2024/01/13 09:08:06;;;;;;;9.40;6.03;;;0.60;99.90;;;;;;5028531;28;20039;-59
2024/01/13 09:10:32;;;;;;;9.77;6.78;;;0.70;99.90;;;;;;5027821;28;20439;-60
2024/01/13 09:12:58;;;;;;;12.73;7.65;;;0.70;99.90;;;;;;5070898;22;20045;-60
2024/01/13 09:15:23;;;;;;;16.75;9.38;;;0.80;99.90;;;;;;5059562;28;20040;-58
2024/01/13 09:17:49;;;;;;;12.30;8.27;;;0.80;99.90;;;;;;5059437;28;20036;-57
2024/01/13 09:20:14;;;;;;;13.18;8.63;;;0.80;99.90;;;;;;5062741;28;20032;-58
2024/01/13 09:22:40;;;;;;;12.43;8.30;;;0.80;99.90;;;;;;5060597;28;20036;-58
2024/01/13 09:25:07;;;;;;;11.75;8.20;;;0.80;99.90;;;;;;5061166;28;20040;-62
2024/01/13 09:27:33;;;;;;;12.50;8.60;;;0.70;99.90;;;;;;5063130;28;20044;-62
2024/01/13 09:29:59;;;;;;;11.95;7.80;;;0.70;99.90;;;;;;5060299;28;20547;-61
2024/01/13 09:32:24;;;;;;;14.38;9.05;;;0.70;99.90;;;;;;5052038;28;20048;-62
2024/01/13 09:34:50;;;;;;;12.75;7.95;;;0.70;99.90;;;;;;5056180;28;20202;-59
2024/01/13 09:37:15;;;;;;;13.60;8.55;;;0.80;99.90;;;;;;5053876;28;20140;-60
2024/01/13 09:39:41;;;;;;;14.57;8.48;;;0.80;99.90;;;;;;5053438;28;20040;-59
2024/01/13 09:42:07;;;;;;;12.68;8.48;;;0.80;99.90;;;;;;5057312;28;20037;-53
2024/01/13 09:44:33;;;;;;;15.52;9.43;;;0.90;99.90;;;;;;5067541;28;20043;-63
2024/01/13 09:47:00;;;;;;;15.40;9.40;;;0.90;99.90;;;;;;5063110;28;20051;-63
2024/01/13 09:49:30;;;;;;;15.38;10.15;;;0.90;99.90;;;;;;5058190;28;20045;-60
2024/01/13 09:51:57;;;;;;;18.00;9.57;;;0.90;99.90;;;;;;5060371;28;20734;-60
2024/01/13 09:57:04;;;;;;;14.35;9.07;;;0.90;99.90;;;;;;5053749;28;20044;-61
2024/01/13 09:59:30;;;;;;;12.90;8.07;;;0.90;99.90;;;;;;5064853;28;20104;-63
2024/01/13 10:01:55;;;;;;;14.05;9.05;;;0.90;99.90;;;;;;5063040;28;20173;-64
2024/01/13 10:04:21;;;;;;;16.95;8.60;;;1.00;99.90;;;;;;5064096;28;20047;-53
2024/01/13 10:06:48;;;;;;;16.25;8.57;;;0.90;99.90;;;;;;5060636;28;20903;-64
2024/01/13 10:09:14;;;;;;;10.18;7.30;;;0.90;99.90;;;;;;5064698;28;20093;-63
2024/01/13 10:11:43;;;;;;;14.23;8.27;;;0.90;99.90;;;;;;5057221;28;20040;-62
2024/01/13 10:14:13;;;;;;;12.70;7.70;;;1.00;99.90;;;;;;5064744;28;20037;-57
2024/01/13 10:16:39;;;;;;;11.73;6.32;;;0.90;99.90;;;;;;5062060;28;20189;-64
2024/01/13 10:19:06;;;;;;;10.48;6.63;;;0.90;99.90;;;;;;5064134;28;20848;-61
2024/01/13 10:21:36;;;;;;;11.35;6.43;;;0.90;99.90;;;;;;5056085;28;20036;-63
2024/01/13 10:24:02;;;;;;;8.77;5.40;;;0.90;99.90;;;;;;5060921;28;20115;-63
2024/01/13 10:26:30;;;;;;;8.98;5.43;;;0.90;99.90;;;;;;5059781;28;20181;-65
2024/01/13 10:28:59;;;;;;;7.32;4.90;;;0.90;99.90;;;;;;5058509;28;20043;-60
2024/01/13 10:31:25;;;;;;;8.70;5.20;;;0.90;99.90;;;;;;5058250;28;20047;-63
2024/01/13 10:33:54;;;;;;;7.82;5.03;;;1.00;99.90;;;;;;5060310;28;20407;-61
2024/01/13 10:36:26;;;;;;;8.65;5.53;;;1.00;99.90;;;;;;5063846;28;20083;-62
2024/01/13 10:38:52;;;;;;;10.25;4.90;;;0.90;99.90;;;;;;5076698;22;20052;-68
2024/01/13 10:41:22;;;;;;;8.00;5.10;;;0.90;99.90;;;;;;5056737;28;20062;-68
2024/01/13 10:43:55;;;;;;;8.88;5.35;;;0.80;99.90;;;;;;5058519;28;20041;-68
2024/01/13 10:46:26;;;;;;;9.43;5.70;;;0.80;99.90;;;;;;5052758;28;20048;-68
2024/01/13 10:49:02;;;;;;;8.18;4.60;;;0.80;99.90;;;;;;5058028;28;20052;-69
2024/01/13 10:51:38;;;;;;;;;;;0.80;99.90;;;;;;5072385;28;20151;-69
2024/01/13 10:54:08;;;;;;;5.35;3.38;;;0.80;99.90;;;;;;5067455;28;19920;-70
2024/01/13 10:56:37;;;;;;;6.18;3.67;;;0.80;99.90;;;;;;5066861;28;20056;-69
2024/01/13 10:59:04;;;;;;;6.50;3.28;;;1.00;99.90;;;;;;5064858;28;20040;-69
2024/01/13 11:01:31;;;;;;;5.63;2.90;;;1.10;99.90;;;;;;5068576;28;20214;-69
2024/01/13 11:03:59;;;;;;;4.20;2.55;;;1.20;99.90;;;;;;5066787;28;20138;-69
2024/01/13 11:06:25;;;;;;;2.95;2.08;;;1.40;99.90;;;;;;5074049;28;20475;-72
2024/01/13 11:08:52;;;;;;;3.70;1.92;;;1.40;99.90;;;;;;5063174;28;20183;-68
2024/01/13 11:11:38;;;;;;;3.97;2.35;;;1.40;99.90;;;;;;5069860;28;20086;-68
2024/01/13 11:14:15;;;;;;;3.00;2.08;;;1.30;99.90;;;;;;5067815;28;20044;-68
2024/01/13 11:16:44;;;;;;;2.42;1.83;;;1.30;99.90;;;;;;5067586;28;20056;-69
2024/01/13 11:19:10;;;;;;;5.68;2.50;;;1.10;99.90;;;;;;5061501;28;20040;-67
2024/01/13 11:21:37;;;;;;;5.13;2.65;;;1.10;99.90;;;;;;5082389;28;20290;-68
2024/01/13 11:24:12;;;;;;;4.30;2.90;;;1.00;99.90;;;;;;5066635;28;20078;-68
2024/01/13 11:26:42;;;;;;;3.85;2.20;;;1.10;99.90;;;;;;5064532;28;20047;-68
2024/01/13 11:29:25;;;;;;;2.95;2.40;;;1.20;99.90;;;;;;5060461;28;20055;-67
2024/01/13 11:31:58;;;;;;;5.43;2.35;;;1.40;99.90;;;;;;5045924;28;20037;-66
2024/01/13 11:34:24;;;;;;;3.55;2.00;;;1.40;99.90;;;;;;5044673;28;20052;-69
2024/01/13 11:37:04;;;;;;;2.95;2.10;;;1.40;99.90;;;;;;5036631;28;20037;-70
2024/01/13 11:39:29;;;;;;;3.70;2.47;;;1.40;99.90;;;;;;5041305;22;20626;-69
2024/01/13 11:41:56;;;;;;;3.15;2.30;;;1.50;99.90;;;;;;5045007;28;20045;-70
2024/01/13 11:44:34;;;;;;;4.63;2.70;;;1.60;99.90;;;;;;5040502;28;20055;-69
2024/01/13 11:47:08;;;;;;;5.97;2.85;;;1.80;99.90;;;;;;5048259;28;20610;-69
2024/01/13 11:49:45;;;;;;;8.07;3.22;;;1.80;99.90;;;;;;5039664;28;20044;-70
2024/01/13 11:52:15;;;;;;;3.40;2.33;;;1.80;99.90;;;;;;5058235;28;20041;-69
2024/01/13 11:54:43;;;;;;;3.40;2.50;;;1.70;99.90;;;;;;5036904;28;20393;-68
2024/01/13 11:57:11;;;;;;;3.45;2.05;;;1.70;99.90;;;;;;5036080;28;20040;-69
2024/01/13 11:59:37;;;;;;;3.05;2.08;;;1.70;99.90;;;;;;5031780;28;20110;-69
2024/01/13 12:02:03;;;;;;;5.05;1.90;;;1.70;99.90;;;;;;4991693;28;20582;-69
2024/01/13 12:04:32;;;;;;;3.40;2.20;;;1.80;99.90;;;;;;4948868;28;20051;-70
2024/01/13 12:06:59;;;;;;;4.72;2.42;;;1.80;99.90;;;;;;4963326;28;20039;-69
2024/01/13 12:09:26;;;;;;;4.22;2.55;;;1.70;99.90;;;;;;4946699;28;20101;-70
2024/01/13 12:11:59;;;;;;;4.07;2.20;;;1.70;99.90;;;;;;4984874;28;20051;-69
2024/01/13 12:14:33;;;;;;;3.15;1.83;;;1.70;99.90;;;;;;4946656;28;20047;-69
2024/01/13 12:17:00;;;;;;;4.22;2.13;;;1.60;99.90;;;;;;4949634;28;20051;-69
2024/01/13 12:19:36;;;;;;;3.35;2.30;;;1.60;99.90;;;;;;4951160;28;20051;-70
2024/01/13 12:22:05;;;;;;;3.05;2.20;;;1.60;99.90;;;;;;4947644;28;20047;-69
2024/01/13 12:24:32;;;;;;;6.68;2.47;;;1.60;99.90;;;;;;4951966;28;20099;-70
2024/01/13 12:26:58;;;;;;;4.90;2.70;;;1.60;99.90;;;;;;4950914;28;20045;-69
2024/01/13 12:29:29;;;;;;;4.05;2.90;;;1.60;99.90;;;;;;4948916;28;20059;-70
2024/01/13 12:31:56;;;;;;;3.17;2.50;;;1.70;99.90;;;;;;4954035;28;20049;-70
2024/01/13 12:34:21;;;;;;;5.07;2.67;;;1.60;99.90;;;;;;4967833;28;20596;-70
2024/01/13 12:36:47;;;;;;;3.85;2.65;;;1.60;99.90;;;;;;4957473;28;20039;-69
2024/01/13 12:39:13;;;;;;;4.05;2.83;;;1.60;99.90;;;;;;4963396;28;20049;-69
2024/01/13 12:41:39;;;;;;;3.17;2.20;;;1.60;99.90;;;;;;4955461;28;20100;-70
2024/01/13 12:44:05;;;;;;;3.03;2.00;;;1.60;99.90;;;;;;4952261;28;20043;-69